createdAt,value
2023-01-28T00:00:12.149Z,82.81
2023-01-28T00:01:12.148Z,82.50
2023-01-28T00:02:12.127Z,82.50
2023-01-28T00:03:12.103Z,82.70
2023-01-28T00:04:12.094Z,83.01
2023-01-28T00:05:12.696Z,83.22
2023-01-28T00:06:12.086Z,83.33
2023-01-28T00:07:12.054Z,83.64
2023-01-28T00:08:12.050Z,83.01
2023-01-28T00:09:12.017Z,82.60
2023-01-28T00:10:12.018Z,82.81
2023-01-28T00:11:12.007Z,83.12
2023-01-28T00:12:11.985Z,82.39
2023-01-28T00:13:11.970Z,82.39
2023-01-28T00:14:11.972Z,82.60
2023-01-28T00:15:12.283Z,82.81
2023-01-28T00:16:11.983Z,82.81
2023-01-28T00:17:11.941Z,82.60
2023-01-28T00:18:11.908Z,82.60
2023-01-28T00:19:11.885Z,82.70
2023-01-28T00:20:11.886Z,82.91
2023-01-28T00:21:11.882Z,83.01
2023-01-28T00:22:11.847Z,83.22
2023-01-28T00:23:11.835Z,83.12
2023-01-28T00:24:11.857Z,83.01
2023-01-28T00:25:11.867Z,83.12
2023-01-28T00:26:11.829Z,83.01
2023-01-28T00:27:11.777Z,83.01
2023-01-28T00:28:11.773Z,82.08
2023-01-28T00:29:11.756Z,82.29
2023-01-28T00:30:11.751Z,82.50
2023-01-28T00:31:11.786Z,82.70
2023-01-28T00:32:11.723Z,83.12
2023-01-28T00:33:11.697Z,83.22
2023-01-28T00:34:11.695Z,83.33
2023-01-28T00:35:11.713Z,83.22
2023-01-28T00:36:11.688Z,83.01
2023-01-28T00:37:11.646Z,82.60
2023-01-28T00:38:11.646Z,82.32
2023-01-28T00:39:11.623Z,82.64
2023-01-28T00:40:11.678Z,82.91
2023-01-28T00:41:11.617Z,82.84
2023-01-28T00:42:11.586Z,82.84
2023-01-28T00:43:11.579Z,82.91
2023-01-28T00:44:11.587Z,83.01
2023-01-28T00:45:11.692Z,82.74
2023-01-28T00:46:11.612Z,82.53
2023-01-28T00:47:11.537Z,82.84
2023-01-28T00:48:11.516Z,83.05
2023-01-28T00:49:11.569Z,82.95
2023-01-28T00:50:11.486Z,82.95
2023-01-28T00:51:11.490Z,82.64
2023-01-28T00:52:11.455Z,82.43
2023-01-28T00:53:11.446Z,82.74
2023-01-28T00:54:11.441Z,82.74
2023-01-28T00:55:11.514Z,82.74
2023-01-28T00:56:11.411Z,82.64
2023-01-28T00:57:11.396Z,82.74
2023-01-28T00:58:11.374Z,82.95
2023-01-28T00:59:11.356Z,82.84
2023-01-28T01:00:11.364Z,82.95
2023-01-28T01:01:11.358Z,83.37
2023-01-28T01:02:11.352Z,83.58
2023-01-28T01:03:11.304Z,83.58
2023-01-28T01:04:11.299Z,83.68
2023-01-28T01:05:11.283Z,83.78
2023-01-28T01:06:11.276Z,83.58
2023-01-28T01:07:11.267Z,83.16
2023-01-28T01:08:11.236Z,83.26
2023-01-28T01:09:11.232Z,83.58
2023-01-28T01:10:11.215Z,83.78
2023-01-28T01:11:11.194Z,83.68
2023-01-28T01:12:11.205Z,83.37
2023-01-28T01:13:11.175Z,83.37
2023-01-28T01:14:11.183Z,83.47
2023-01-28T01:15:11.159Z,83.26
2023-01-28T01:16:11.256Z,83.37
2023-01-28T01:17:11.166Z,83.47
2023-01-28T01:18:11.115Z,83.58
2023-01-28T01:19:11.093Z,83.16
2023-01-28T01:20:11.084Z,82.84
2023-01-28T01:21:11.064Z,82.95
2023-01-28T01:22:11.081Z,83.05
2023-01-28T01:23:11.042Z,82.64
2023-01-28T01:24:11.058Z,82.74
2023-01-28T01:25:11.015Z,82.74
2023-01-28T01:26:11.008Z,82.84
2023-01-28T01:27:11.003Z,82.95
2023-01-28T01:28:10.974Z,83.16
2023-01-28T01:29:10.963Z,82.84
2023-01-28T01:30:10.951Z,83.16
2023-01-28T01:31:10.935Z,83.30
2023-01-28T01:32:10.990Z,83.30
2023-01-28T01:33:10.903Z,83.26
2023-01-28T01:34:10.885Z,83.09
2023-01-28T01:35:10.883Z,83.09
2023-01-28T01:36:10.872Z,82.89
2023-01-28T01:37:10.854Z,82.78
2023-01-28T01:38:10.843Z,82.89
2023-01-28T01:39:10.827Z,83.09
2023-01-28T01:40:10.815Z,83.30
2023-01-28T01:41:10.832Z,83.20
2023-01-28T01:42:10.814Z,83.30
2023-01-28T01:43:10.799Z,83.30
2023-01-28T01:44:10.817Z,83.09
2023-01-28T01:45:10.783Z,82.99
2023-01-28T01:46:10.814Z,83.09
2023-01-28T01:47:10.724Z,83.30
2023-01-28T01:48:10.728Z,83.40
2023-01-28T01:49:10.692Z,83.40
2023-01-28T01:50:10.684Z,83.40
2023-01-28T01:51:10.678Z,83.20
2023-01-28T01:52:10.653Z,83.20
2023-01-28T01:53:10.693Z,83.40
2023-01-28T01:54:10.612Z,83.51
2023-01-28T01:55:10.611Z,83.61
2023-01-28T01:56:10.628Z,83.92
2023-01-28T01:57:10.613Z,84.13
2023-01-28T01:58:10.599Z,84.34
2023-01-28T01:59:10.619Z,84.55
2023-01-28T02:00:10.551Z,84.23
2023-01-28T02:01:10.544Z,83.72
2023-01-28T02:02:10.599Z,83.40
2023-01-28T02:03:10.588Z,83.40
2023-01-28T02:04:10.498Z,83.40
2023-01-28T02:05:10.483Z,83.30
2023-01-28T02:06:10.474Z,82.99
2023-01-28T02:07:10.470Z,82.84
2023-01-28T02:08:10.462Z,82.74
2023-01-28T02:09:10.432Z,81.95
2023-01-28T02:10:10.412Z,81.95
2023-01-28T02:11:10.401Z,82.15
2023-01-28T02:12:10.392Z,82.26
2023-01-28T02:13:10.403Z,82.32
2023-01-28T02:14:14.479Z,82.53
2023-01-28T02:15:11.370Z,82.22
2023-01-28T02:16:10.331Z,82.26
2023-01-28T02:17:10.319Z,82.32
2023-01-28T02:18:10.323Z,82.15
2023-01-28T02:19:10.313Z,82.53
2023-01-28T02:20:10.279Z,82.64
2023-01-28T02:21:10.269Z,82.36
2023-01-28T02:22:10.250Z,82.57
2023-01-28T02:23:10.268Z,82.43
2023-01-28T02:24:10.283Z,82.43
2023-01-28T02:25:10.225Z,82.12
2023-01-28T02:26:10.201Z,81.91
2023-01-28T02:27:10.191Z,81.81
2023-01-28T02:28:10.198Z,81.81
2023-01-28T02:29:10.165Z,82.01
2023-01-28T02:30:10.164Z,82.12
2023-01-28T02:31:10.188Z,82.22
2023-01-28T02:32:10.118Z,82.12
2023-01-28T02:33:10.121Z,82.12
2023-01-28T02:34:10.099Z,82.43
2023-01-28T02:35:10.079Z,82.64
2023-01-28T02:36:10.072Z,82.53
2023-01-28T02:37:10.054Z,82.43
2023-01-28T02:38:10.039Z,82.53
2023-01-28T02:39:10.048Z,82.53
2023-01-28T02:40:10.028Z,82.22
2023-01-28T02:41:09.998Z,81.81
2023-01-28T02:42:10.001Z,81.60
2023-01-28T02:43:09.978Z,81.91
2023-01-28T02:44:09.984Z,81.60
2023-01-28T02:45:09.964Z,81.60
2023-01-28T02:46:09.957Z,81.91
2023-01-28T02:47:09.919Z,82.01
2023-01-28T02:48:09.909Z,82.32
2023-01-28T02:49:09.929Z,82.64
2023-01-28T02:50:09.878Z,82.43
2023-01-28T02:51:09.869Z,82.22
2023-01-28T02:52:09.848Z,81.91
2023-01-28T02:53:09.849Z,81.91
2023-01-28T02:54:09.838Z,81.81
2023-01-28T02:55:09.831Z,81.91
2023-01-28T02:56:09.807Z,82.22
2023-01-28T02:57:09.831Z,82.01
2023-01-28T02:58:09.779Z,82.12
2023-01-28T02:59:09.778Z,81.91
2023-01-28T03:00:09.748Z,81.81
2023-01-28T03:01:09.739Z,81.95
2023-01-28T03:02:09.730Z,82.05
2023-01-28T03:03:09.721Z,82.26
2023-01-28T03:04:09.740Z,82.26
2023-01-28T03:05:09.687Z,81.95
2023-01-28T03:06:09.680Z,81.84
2023-01-28T03:07:09.668Z,81.95
2023-01-28T03:08:09.639Z,82.15
2023-01-28T03:09:09.665Z,82.15
2023-01-28T03:10:09.617Z,81.95
2023-01-28T03:11:09.647Z,81.84
2023-01-28T03:12:09.593Z,81.63
2023-01-28T03:13:09.597Z,81.63
2023-01-28T03:14:09.582Z,81.84
2023-01-28T03:15:09.559Z,82.05
2023-01-28T03:16:09.574Z,81.84
2023-01-28T03:17:09.527Z,81.53
2023-01-28T03:18:09.544Z,81.22
2023-01-28T03:19:09.540Z,80.91
2023-01-28T03:20:09.483Z,80.70
2023-01-28T03:21:09.483Z,81.22
2023-01-28T03:22:09.447Z,81.12
2023-01-28T03:23:09.468Z,81.12
2023-01-28T03:24:09.488Z,81.12
2023-01-28T03:25:09.469Z,80.80
2023-01-28T03:26:09.403Z,80.91
2023-01-28T03:27:09.387Z,81.01
2023-01-28T03:28:09.372Z,81.12
2023-01-28T03:29:09.395Z,81.22
2023-01-28T03:30:09.351Z,81.22
2023-01-28T03:31:09.378Z,81.53
2023-01-28T03:32:09.366Z,81.63
2023-01-28T03:33:09.323Z,81.63
2023-01-28T03:34:09.307Z,81.74
2023-01-28T03:35:09.337Z,81.84
2023-01-28T03:36:09.278Z,81.74
2023-01-28T03:37:09.269Z,81.63
2023-01-28T03:38:09.246Z,81.53
2023-01-28T03:39:09.235Z,81.95
2023-01-28T03:40:09.236Z,82.36
2023-01-28T03:41:09.221Z,82.05
2023-01-28T03:42:09.187Z,81.84
2023-01-28T03:43:09.206Z,81.74
2023-01-28T03:44:09.164Z,82.15
2023-01-28T03:45:09.166Z,82.26
2023-01-28T03:46:09.148Z,82.26
2023-01-28T03:47:09.138Z,82.15
2023-01-28T03:48:09.106Z,82.15
2023-01-28T03:49:09.109Z,82.15
2023-01-28T03:50:09.109Z,82.05
2023-01-28T03:51:09.096Z,82.26
2023-01-28T03:52:09.063Z,82.15
2023-01-28T03:53:09.066Z,82.05
2023-01-28T03:54:09.040Z,82.05
2023-01-28T03:55:09.043Z,82.05
2023-01-28T03:56:09.002Z,82.05
2023-01-28T03:57:08.996Z,82.26
2023-01-28T03:58:08.978Z,82.46
2023-01-28T03:59:08.981Z,82.78
2023-01-28T04:00:08.967Z,82.57
2023-01-28T04:01:08.948Z,82.46
2023-01-28T04:02:08.939Z,82.46
2023-01-28T04:03:09.007Z,82.57
2023-01-28T04:04:08.902Z,82.68
2023-01-28T04:05:08.904Z,81.22
2023-01-28T04:06:08.874Z,81.01
2023-01-28T04:07:08.886Z,81.26
2023-01-28T04:08:08.855Z,81.15
2023-01-28T04:09:08.843Z,81.15
2023-01-28T04:10:08.867Z,80.74
2023-01-28T04:11:08.814Z,80.11
2023-01-28T04:12:08.793Z,80.43
2023-01-28T04:13:08.784Z,80.32
2023-01-28T04:14:08.783Z,80.63
2023-01-28T04:15:08.775Z,80.63
2023-01-28T04:16:08.910Z,80.63
2023-01-28T04:17:08.767Z,80.46
2023-01-28T04:18:08.721Z,80.57
2023-01-28T04:19:08.714Z,80.77
2023-01-28T04:20:08.724Z,80.67
2023-01-28T04:21:08.674Z,80.46
2023-01-28T04:22:08.667Z,80.36
2023-01-28T04:23:08.652Z,80.57
2023-01-28T04:24:08.649Z,80.88
2023-01-28T04:25:08.643Z,81.29
2023-01-28T04:26:08.618Z,81.71
2023-01-28T04:27:08.594Z,81.60
2023-01-28T04:28:08.595Z,81.40
2023-01-28T04:29:08.575Z,81.36
2023-01-28T04:30:08.561Z,81.36
2023-01-28T04:31:08.658Z,81.36
2023-01-28T04:32:11.308Z,81.26
2023-01-28T04:33:08.516Z,80.94
2023-01-28T04:34:08.503Z,80.84
2023-01-28T04:35:08.498Z,80.84
2023-01-28T04:36:08.491Z,80.32
2023-01-28T04:37:08.469Z,80.43
2023-01-28T04:38:08.452Z,80.43
2023-01-28T04:39:08.450Z,80.43
2023-01-28T04:40:08.442Z,80.63
2023-01-28T04:41:08.434Z,81.05
2023-01-28T04:42:08.391Z,80.94
2023-01-28T04:43:08.382Z,80.84
2023-01-28T04:44:08.374Z,80.53
2023-01-28T04:45:08.366Z,80.53
2023-01-28T04:46:08.369Z,80.63
2023-01-28T04:47:08.342Z,80.74
2023-01-28T04:48:08.314Z,80.57
2023-01-28T04:49:08.308Z,80.63
2023-01-28T04:50:08.323Z,80.67
2023-01-28T04:51:08.292Z,80.57
2023-01-28T04:52:08.267Z,80.67
2023-01-28T04:53:08.254Z,80.46
2023-01-28T04:54:08.234Z,80.26
2023-01-28T04:55:08.225Z,80.26
2023-01-28T04:56:08.221Z,80.57
2023-01-28T04:57:08.212Z,80.67
2023-01-28T04:58:08.199Z,80.88
2023-01-28T04:59:08.172Z,81.29
2023-01-28T05:00:08.162Z,81.71
2023-01-28T05:01:08.248Z,81.92
2023-01-28T05:02:08.146Z,81.71
2023-01-28T05:03:08.122Z,80.98
2023-01-28T05:04:08.101Z,80.88
2023-01-28T05:05:08.092Z,80.98
2023-01-28T05:06:08.091Z,81.09
2023-01-28T05:07:08.062Z,80.88
2023-01-28T05:08:08.063Z,80.77
2023-01-28T05:09:08.032Z,80.77
2023-01-28T05:10:08.030Z,80.57
2023-01-28T05:11:08.042Z,80.67
2023-01-28T05:12:07.993Z,80.94
2023-01-28T05:13:07.985Z,80.94
2023-01-28T05:14:07.981Z,80.67
2023-01-28T05:15:07.969Z,80.74
2023-01-28T05:16:07.940Z,81.26
2023-01-28T05:17:07.980Z,81.26
2023-01-28T05:18:07.921Z,81.46
2023-01-28T05:19:07.936Z,81.77
2023-01-28T05:20:07.894Z,81.98
2023-01-28T05:21:07.884Z,82.09
2023-01-28T05:22:07.884Z,82.20
2023-01-28T05:23:07.883Z,82.40
2023-01-28T05:24:07.944Z,82.30
2023-01-28T05:25:07.828Z,81.77
2023-01-28T05:26:07.813Z,81.46
2023-01-28T05:27:07.805Z,80.84
2023-01-28T05:28:14.971Z,80.74
2023-01-28T05:29:07.797Z,80.94
2023-01-28T05:30:07.772Z,80.94
2023-01-28T05:31:07.794Z,80.84
2023-01-28T05:32:07.810Z,80.94
2023-01-28T05:33:07.737Z,81.26
2023-01-28T05:34:07.719Z,81.67
2023-01-28T05:35:07.695Z,81.77
2023-01-28T05:36:07.688Z,81.26
2023-01-28T05:37:07.676Z,80.84
2023-01-28T05:38:07.682Z,80.84
2023-01-28T05:39:07.687Z,80.74
2023-01-28T05:40:07.625Z,80.53
2023-01-28T05:41:07.634Z,80.32
2023-01-28T05:42:07.604Z,80.74
2023-01-28T05:43:07.579Z,80.43
2023-01-28T05:44:07.596Z,80.43
2023-01-28T05:45:07.586Z,81.05
2023-01-28T05:46:07.591Z,80.94
2023-01-28T05:47:07.527Z,80.63
2023-01-28T05:48:07.527Z,80.63
2023-01-28T05:49:07.540Z,80.63
2023-01-28T05:50:07.498Z,80.84
2023-01-28T05:51:07.493Z,81.15
2023-01-28T05:52:07.504Z,80.94
2023-01-28T05:53:07.457Z,80.88
2023-01-28T05:54:07.465Z,80.84
2023-01-28T05:55:07.465Z,80.77
2023-01-28T05:56:07.425Z,80.77
2023-01-28T05:57:07.404Z,80.98
2023-01-28T05:58:07.394Z,81.19
2023-01-28T05:59:07.379Z,81.50
2023-01-28T06:00:07.388Z,81.71
2023-01-28T06:01:07.341Z,82.03
2023-01-28T06:02:07.385Z,82.13
2023-01-28T06:03:07.324Z,82.03
2023-01-28T06:04:07.317Z,82.03
2023-01-28T06:05:07.342Z,82.03
2023-01-28T06:06:07.295Z,82.03
2023-01-28T06:07:07.271Z,81.92
2023-01-28T06:08:07.275Z,81.81
2023-01-28T06:09:07.247Z,81.81
2023-01-28T06:10:07.255Z,81.92
2023-01-28T06:11:07.213Z,82.03
2023-01-28T06:12:07.218Z,82.23
2023-01-28T06:13:07.191Z,82.23
2023-01-28T06:14:07.177Z,82.23
2023-01-28T06:15:07.214Z,82.37
2023-01-28T06:16:07.173Z,82.44
2023-01-28T06:17:07.132Z,82.44
2023-01-28T06:18:07.124Z,82.54
2023-01-28T06:19:07.114Z,82.54
2023-01-28T06:20:07.118Z,82.54
2023-01-28T06:21:07.094Z,82.96
2023-01-28T06:22:07.088Z,82.96
2023-01-28T06:23:07.060Z,82.86
2023-01-28T06:24:07.080Z,82.54
2023-01-28T06:25:07.067Z,82.54
2023-01-28T06:26:07.013Z,82.13
2023-01-28T06:27:07.014Z,81.81
2023-01-28T06:28:06.993Z,81.81
2023-01-28T06:29:06.975Z,81.40
2023-01-28T06:30:06.982Z,81.29
2023-01-28T06:31:06.981Z,80.88
2023-01-28T06:32:06.991Z,80.67
2023-01-28T06:33:06.923Z,80.26
2023-01-28T06:34:06.944Z,79.52
2023-01-28T06:35:06.913Z,79.00
2023-01-28T06:36:06.883Z,79.11
2023-01-28T06:37:06.874Z,79.52
2023-01-28T06:38:06.884Z,79.00
2023-01-28T06:39:06.843Z,78.80
2023-01-28T06:40:06.843Z,79.00
2023-01-28T06:41:06.830Z,78.45
2023-01-28T06:42:06.803Z,78.03
2023-01-28T06:43:06.803Z,78.14
2023-01-28T06:44:06.774Z,78.24
2023-01-28T06:45:06.824Z,77.83
2023-01-28T06:46:06.831Z,77.23
2023-01-28T06:47:06.772Z,77.75
2023-01-28T06:48:08.828Z,77.86
2023-01-28T06:49:06.718Z,77.96
2023-01-28T06:50:06.709Z,77.75
2023-01-28T06:51:06.704Z,77.75
2023-01-28T06:52:06.685Z,77.03
2023-01-28T06:53:06.651Z,76.72
2023-01-28T06:54:06.642Z,76.82
2023-01-28T06:55:06.638Z,77.23
2023-01-28T06:56:06.704Z,76.61
2023-01-28T06:57:06.615Z,75.67
2023-01-28T06:58:06.603Z,75.67
2023-01-28T06:59:06.581Z,75.98
2023-01-28T07:00:06.579Z,76.09
2023-01-28T07:01:06.580Z,75.78
2023-01-28T07:02:06.573Z,76.51
2023-01-28T07:03:06.593Z,76.61
2023-01-28T07:04:06.515Z,76.09
2023-01-28T07:05:06.516Z,75.98
2023-01-28T07:06:06.518Z,75.57
2023-01-28T07:07:06.472Z,75.57
2023-01-28T07:08:06.481Z,75.88
2023-01-28T07:09:06.454Z,75.05
2023-01-28T07:10:06.432Z,75.26
2023-01-28T07:11:06.432Z,75.15
2023-01-28T07:12:06.420Z,74.63
2023-01-28T07:13:06.406Z,74.63
2023-01-28T07:14:06.395Z,74.95
2023-01-28T07:15:06.358Z,74.43
2023-01-28T07:16:06.388Z,74.21
2023-01-28T07:17:06.366Z,74.43
2023-01-28T07:18:06.349Z,74.32
2023-01-28T07:19:06.310Z,74.43
2023-01-28T07:20:06.312Z,74.43
2023-01-28T07:21:06.306Z,74.43
2023-01-28T07:22:06.281Z,74.53
2023-01-28T07:23:06.312Z,74.01
2023-01-28T07:24:06.299Z,74.01
2023-01-28T07:25:06.243Z,74.53
2023-01-28T07:26:06.230Z,73.69
2023-01-28T07:27:06.210Z,74.53
2023-01-28T07:28:06.206Z,74.95
2023-01-28T07:29:06.182Z,74.95
2023-01-28T07:30:06.172Z,74.43
2023-01-28T07:31:06.265Z,73.49
2023-01-28T07:32:06.145Z,73.59
2023-01-28T07:33:06.123Z,73.49
2023-01-28T07:34:06.114Z,73.80
2023-01-28T07:35:06.121Z,73.80
2023-01-28T07:36:06.132Z,73.69
2023-01-28T07:37:06.071Z,73.80
2023-01-28T07:38:06.059Z,74.32
2023-01-28T07:39:06.055Z,75.05
2023-01-28T07:40:06.041Z,74.84
2023-01-28T07:41:06.030Z,73.49
2023-01-28T07:42:06.016Z,73.18
2023-01-28T07:43:06.008Z,74.01
2023-01-28T07:44:05.977Z,74.95
2023-01-28T07:45:05.968Z,74.84
2023-01-28T07:46:05.957Z,73.80
2023-01-28T07:47:06.037Z,73.90
2023-01-28T07:48:05.938Z,74.53
2023-01-28T07:49:05.925Z,74.63
2023-01-28T07:50:05.909Z,74.84
2023-01-28T07:51:05.906Z,75.36
2023-01-28T07:52:05.904Z,75.26
2023-01-28T07:53:05.899Z,74.84
2023-01-28T07:54:05.890Z,73.38
2023-01-28T07:55:05.852Z,74.01
2023-01-28T07:56:05.819Z,74.01
2023-01-28T07:57:05.828Z,74.21
2023-01-28T07:58:05.797Z,73.69
2023-01-28T07:59:05.779Z,73.90
2023-01-28T08:00:05.782Z,73.38
2023-01-28T08:01:05.822Z,73.18
2023-01-28T08:02:05.768Z,73.90
2023-01-28T08:03:05.743Z,74.43
2023-01-28T08:04:05.971Z,74.84
2023-01-28T08:05:05.808Z,74.74
2023-01-28T08:06:05.696Z,74.32
2023-01-28T08:07:07.924Z,74.21
2023-01-28T08:08:05.655Z,74.53
2023-01-28T08:09:05.651Z,74.80
2023-01-28T08:10:05.660Z,73.87
2023-01-28T08:11:05.618Z,73.25
2023-01-28T08:12:05.649Z,73.56
2023-01-28T08:13:05.600Z,74.60
2023-01-28T08:14:05.586Z,73.66
2023-01-28T08:15:05.586Z,73.56
2023-01-28T08:16:05.627Z,73.28
2023-01-28T08:17:05.568Z,72.76
2023-01-28T08:18:05.557Z,72.55
2023-01-28T08:19:05.521Z,72.31
2023-01-28T08:20:05.508Z,71.79
2023-01-28T08:21:05.484Z,71.61
2023-01-28T08:22:05.500Z,72.10
2023-01-28T08:23:05.508Z,72.93
2023-01-28T08:24:05.520Z,73.14
2023-01-28T08:25:05.437Z,73.35
2023-01-28T08:26:05.444Z,73.56
2023-01-28T08:27:05.445Z,73.46
2023-01-28T08:28:05.404Z,73.14
2023-01-28T08:29:05.409Z,73.03
2023-01-28T08:30:05.378Z,73.25
2023-01-28T08:31:05.506Z,72.72
2023-01-28T08:32:05.377Z,72.83
2023-01-28T08:33:05.358Z,72.52
2023-01-28T08:34:05.324Z,72.93
2023-01-28T08:35:05.302Z,73.46
2023-01-28T08:36:05.315Z,73.97
2023-01-28T08:37:05.317Z,74.39
2023-01-28T08:38:05.277Z,73.97
2023-01-28T08:39:05.358Z,73.46
2023-01-28T08:40:05.255Z,72.72
2023-01-28T08:41:05.227Z,72.93
2023-01-28T08:42:05.269Z,73.14
2023-01-28T08:43:05.223Z,73.14
2023-01-28T08:44:05.202Z,73.56
2023-01-28T08:45:05.168Z,73.87
2023-01-28T08:46:05.193Z,73.87
2023-01-28T08:47:05.169Z,74.18
2023-01-28T08:48:05.142Z,73.87
2023-01-28T08:49:05.125Z,73.87
2023-01-28T08:50:05.119Z,74.08
2023-01-28T08:51:05.086Z,74.29
2023-01-28T08:52:05.087Z,75.50
2023-01-28T08:53:05.140Z,94.40
2023-01-28T08:54:05.056Z,99.66
2023-01-28T08:55:05.035Z,99.11
2023-01-28T08:56:05.032Z,93.71
2023-01-28T08:57:05.028Z,81.30
2023-01-28T08:58:05.017Z,74.50
2023-01-28T08:59:04.999Z,72.56
2023-01-28T09:00:04.975Z,72.56
2023-01-28T09:01:04.957Z,72.35
2023-01-28T09:02:04.985Z,72.28
2023-01-28T09:03:06.291Z,71.66
2023-01-28T09:04:05.102Z,71.28
2023-01-28T09:05:04.911Z,71.17
2023-01-28T09:06:04.909Z,71.41
2023-01-28T09:07:04.906Z,71.93
2023-01-28T09:08:04.876Z,72.14
2023-01-28T09:09:04.856Z,72.07
2023-01-28T09:10:04.849Z,71.75
2023-01-28T09:11:04.854Z,71.13
2023-01-28T09:12:04.844Z,71.69
2023-01-28T09:13:04.874Z,72.83
2023-01-28T09:14:04.776Z,73.56
2023-01-28T09:15:04.767Z,74.08
2023-01-28T09:16:04.818Z,73.46
2023-01-28T09:17:04.755Z,72.62
2023-01-28T09:18:04.776Z,71.92
2023-01-28T09:19:04.730Z,72.66
2023-01-28T09:20:04.718Z,73.38
2023-01-28T09:21:04.684Z,73.18
2023-01-28T09:22:04.704Z,73.18
2023-01-28T09:23:04.653Z,73.59
2023-01-28T09:24:04.745Z,73.38
2023-01-28T09:25:04.650Z,74.11
2023-01-28T09:26:04.636Z,73.59
2023-01-28T09:27:04.630Z,73.28
2023-01-28T09:28:04.606Z,72.86
2023-01-28T09:29:04.576Z,73.28
2023-01-28T09:30:04.575Z,73.56
2023-01-28T09:31:04.727Z,73.14
2023-01-28T09:32:04.628Z,73.14
2023-01-28T09:33:04.522Z,72.72
2023-01-28T09:34:04.522Z,72.83
2023-01-28T09:35:04.518Z,73.03
2023-01-28T09:36:04.493Z,73.46
2023-01-28T09:37:04.532Z,73.25
2023-01-28T09:38:04.477Z,73.35
2023-01-28T09:39:04.449Z,73.56
2023-01-28T09:40:04.441Z,73.56
2023-01-28T09:41:04.424Z,73.18
2023-01-28T09:42:04.470Z,73.59
2023-01-28T09:43:04.401Z,73.38
2023-01-28T09:44:04.362Z,72.97
2023-01-28T09:45:04.371Z,84.72
2023-01-28T09:46:04.369Z,95.77
2023-01-28T09:47:04.371Z,88.30
2023-01-28T09:48:04.333Z,75.15
2023-01-28T09:49:04.383Z,71.00
2023-01-28T09:50:04.316Z,71.14
2023-01-28T09:51:04.323Z,69.27
2023-01-28T09:52:04.283Z,69.09
2023-01-28T09:53:04.295Z,69.71
2023-01-28T09:54:04.263Z,69.96
2023-01-28T09:55:04.246Z,69.64
2023-01-28T09:56:04.271Z,69.96
2023-01-28T09:57:04.216Z,71.03
2023-01-28T09:58:04.236Z,70.92
2023-01-28T09:59:04.196Z,71.13
2023-01-28T10:00:04.179Z,71.65
2023-01-28T10:01:04.261Z,71.65
2023-01-28T10:02:04.157Z,71.86
2023-01-28T10:03:04.159Z,71.83
2023-01-28T10:04:04.193Z,72.03
2023-01-28T10:05:04.109Z,71.72
2023-01-28T10:06:04.088Z,72.97
2023-01-28T10:07:04.093Z,72.14
2023-01-28T10:08:04.078Z,71.83
2023-01-28T10:09:04.061Z,71.31
2023-01-28T10:10:04.044Z,70.79
2023-01-28T10:11:04.040Z,70.68
2023-01-28T10:12:04.000Z,70.89
2023-01-28T10:13:04.011Z,70.48
2023-01-28T10:14:03.982Z,70.40
2023-01-28T10:15:03.971Z,70.51
2023-01-28T10:16:03.960Z,71.13
2023-01-28T10:17:04.003Z,71.34
2023-01-28T10:18:16.450Z,71.86
2023-01-28T10:19:04.929Z,72.38
2023-01-28T10:20:03.900Z,71.86
2023-01-28T10:21:03.892Z,71.97
2023-01-28T10:22:03.891Z,71.65
2023-01-28T10:23:03.879Z,72.03
2023-01-28T10:24:03.967Z,72.34
2023-01-28T10:25:03.844Z,72.24
2023-01-28T10:26:03.835Z,71.41
2023-01-28T10:27:03.815Z,70.82
2023-01-28T10:28:03.821Z,70.61
2023-01-28T10:29:03.806Z,70.40
2023-01-28T10:30:03.796Z,70.72
2023-01-28T10:31:03.833Z,70.61
2023-01-28T10:32:03.784Z,70.30
2023-01-28T10:33:03.751Z,70.92
2023-01-28T10:34:03.732Z,70.20
2023-01-28T10:35:03.740Z,69.99
2023-01-28T10:36:03.693Z,70.64
2023-01-28T10:37:03.689Z,70.64
2023-01-28T10:38:03.690Z,70.85
2023-01-28T10:39:03.660Z,70.95
2023-01-28T10:40:03.640Z,70.85
2023-01-28T10:41:03.687Z,70.85
2023-01-28T10:42:03.619Z,71.27
2023-01-28T10:43:03.625Z,71.17
2023-01-28T10:44:03.595Z,71.55
2023-01-28T10:45:03.589Z,71.34
2023-01-28T10:46:03.614Z,71.03
2023-01-28T10:47:03.555Z,70.40
2023-01-28T10:48:03.569Z,69.99
2023-01-28T10:49:03.521Z,70.23
2023-01-28T10:50:03.527Z,69.81
2023-01-28T10:51:03.502Z,70.02
2023-01-28T10:52:03.481Z,70.20
2023-01-28T10:53:03.496Z,69.05
2023-01-28T10:54:03.453Z,69.47
2023-01-28T10:55:03.462Z,68.74
2023-01-28T10:56:03.435Z,68.35
2023-01-28T10:57:03.423Z,68.56
2023-01-28T10:58:03.422Z,68.98
2023-01-28T10:59:03.389Z,69.29
2023-01-28T11:00:03.411Z,69.50
2023-01-28T11:01:03.437Z,69.29
2023-01-28T11:02:03.394Z,68.98
2023-01-28T11:03:03.368Z,69.57
2023-01-28T11:04:03.331Z,69.57
2023-01-28T11:05:03.321Z,69.57
2023-01-28T11:06:03.306Z,69.37
2023-01-28T11:07:03.349Z,69.89
2023-01-28T11:08:03.298Z,69.78
2023-01-28T11:09:03.259Z,69.47
2023-01-28T11:10:03.254Z,69.05
2023-01-28T11:11:03.229Z,69.05
2023-01-28T11:12:03.456Z,68.74
2023-01-28T11:13:03.233Z,68.81
2023-01-28T11:14:03.351Z,69.33
2023-01-28T11:15:03.266Z,68.91
2023-01-28T11:16:03.191Z,69.02
2023-01-28T11:17:03.159Z,68.81
2023-01-28T11:18:03.160Z,69.33
2023-01-28T11:19:03.139Z,67.98
2023-01-28T11:20:03.110Z,67.67
2023-01-28T11:21:03.121Z,67.46
2023-01-28T11:22:03.121Z,66.97
2023-01-28T11:23:03.069Z,65.62
2023-01-28T11:24:03.115Z,66.97
2023-01-28T11:25:03.079Z,68.63
2023-01-28T11:26:03.028Z,68.74
2023-01-28T11:27:03.101Z,70.09
2023-01-28T11:28:03.103Z,70.20
2023-01-28T11:29:03.050Z,69.54
2023-01-28T11:30:03.031Z,69.33
2023-01-28T11:31:03.231Z,68.50
2023-01-28T11:32:03.059Z,68.60
2023-01-28T11:33:03.021Z,68.81
2023-01-28T11:34:03.364Z,68.40
2023-01-28T11:35:02.998Z,68.19
2023-01-28T11:36:03.140Z,67.98
2023-01-28T11:37:02.983Z,68.08
2023-01-28T11:38:02.935Z,68.81
2023-01-28T11:39:02.978Z,68.40
2023-01-28T11:40:02.909Z,68.71
2023-01-28T11:41:03.001Z,73.60
2023-01-28T11:42:03.908Z,91.89
2023-01-28T11:43:02.852Z,96.29
2023-01-28T11:44:02.840Z,92.14
2023-01-28T11:45:02.860Z,87.85
2023-01-28T11:46:05.217Z,80.98
2023-01-28T11:47:02.917Z,79.16
2023-01-28T11:48:02.813Z,74.98
2023-01-28T11:49:02.888Z,57.16
2023-01-28T11:50:03.179Z,55.07
2023-01-28T11:51:02.798Z,54.56
2023-01-28T11:52:02.758Z,55.87
2023-01-28T11:53:06.486Z,58.30
2023-01-28T11:54:02.829Z,60.22
2023-01-28T11:55:02.758Z,62.04
2023-01-28T11:56:02.688Z,62.68
2023-01-28T11:57:02.717Z,62.09
2023-01-28T11:58:02.684Z,64.09
2023-01-28T11:59:02.656Z,64.95
2023-01-28T12:00:02.800Z,64.56
2023-01-28T12:01:02.759Z,64.87
2023-01-28T12:02:02.635Z,65.50
2023-01-28T12:03:03.590Z,65.81
2023-01-28T12:04:02.829Z,66.22
2023-01-28T12:05:02.609Z,65.94
2023-01-28T12:06:02.768Z,66.44
2023-01-28T12:07:02.588Z,63.87
2023-01-28T12:08:02.539Z,64.70
2023-01-28T12:09:02.540Z,64.80
2023-01-28T12:10:02.574Z,65.22
2023-01-28T12:11:02.497Z,66.15
2023-01-28T12:12:04.805Z,64.70
2023-01-28T12:13:02.472Z,64.77
2023-01-28T12:14:02.728Z,64.67
2023-01-28T12:15:02.489Z,65.22
2023-01-28T12:16:02.484Z,64.98
2023-01-28T12:17:02.410Z,65.29
2023-01-28T12:18:02.919Z,64.98
2023-01-28T12:19:02.466Z,65.19
2023-01-28T12:20:02.370Z,64.07
2023-01-28T12:21:02.439Z,65.22
2023-01-28T12:22:02.376Z,79.27
2023-01-28T12:23:02.340Z,83.86
2023-01-28T12:24:03.376Z,69.63
2023-01-28T12:25:02.471Z,64.27
2023-01-28T12:26:03.103Z,63.54
2023-01-28T12:27:03.375Z,62.92
2023-01-28T12:28:02.551Z,62.82
2023-01-28T12:29:02.974Z,63.23
2023-01-28T12:30:02.686Z,88.43
2023-01-28T12:31:02.963Z,84.75
2023-01-28T12:32:02.334Z,81.26
2023-01-28T12:33:02.295Z,81.01
2023-01-28T12:34:02.363Z,64.50
2023-01-28T12:35:02.298Z,73.27
2023-01-28T12:36:02.269Z,57.28
2023-01-28T12:37:02.365Z,53.94
2023-01-28T12:38:02.235Z,54.43
2023-01-28T12:39:02.381Z,55.10
2023-01-28T12:40:02.190Z,55.57
2023-01-28T12:41:02.213Z,56.88
2023-01-28T12:42:03.950Z,57.55
2023-01-28T12:43:02.107Z,58.61
2023-01-28T12:44:02.337Z,60.53
2023-01-28T12:45:02.995Z,61.38
2023-01-28T12:46:04.229Z,74.19
2023-01-28T12:47:04.223Z,65.08
2023-01-28T12:48:02.102Z,61.69
2023-01-28T12:49:04.204Z,61.00
2023-01-28T12:50:01.995Z,62.58
2023-01-28T12:51:01.992Z,63.54
2023-01-28T12:52:01.981Z,64.27